sensor_id;sensor_type;location;lat;lon;timestamp;P1;durP1;ratioP1;P2;durP2;ratioP2
13866;SDS011;7003;46.982;15.248;2023-03-14T00:00:22;2.90;;;2.43;;
13866;SDS011;7003;46.982;15.248;2023-03-14T00:02:52;4.00;;;1.73;;
13866;SDS011;7003;46.982;15.248;2023-03-14T00:05:20;3.27;;;2.37;;
13866;SDS011;7003;46.982;15.248;2023-03-14T00:07:47;4.30;;;2.33;;
13866;SDS011;7003;46.982;15.248;2023-03-14T00:10:19;3.33;;;2.00;;
13866;SDS011;7003;46.982;15.248;2023-03-14T00:12:46;4.57;;;2.50;;
13866;SDS011;7003;46.982;15.248;2023-03-14T00:15:14;3.00;;;2.67;;
13866;SDS011;7003;46.982;15.248;2023-03-14T00:17:43;2.70;;;2.27;;
13866;SDS011;7003;46.982;15.248;2023-03-14T00:20:13;2.80;;;2.40;;
13866;SDS011;7003;46.982;15.248;2023-03-14T00:22:42;4.70;;;2.87;;
13866;SDS011;7003;46.982;15.248;2023-03-14T00:25:09;4.37;;;2.93;;
13866;SDS011;7003;46.982;15.248;2023-03-14T00:27:42;2.83;;;2.00;;
13866;SDS011;7003;46.982;15.248;2023-03-14T00:30:09;4.50;;;2.40;;
13866;SDS011;7003;46.982;15.248;2023-03-14T00:32:37;5.17;;;2.93;;
13866;SDS011;7003;46.982;15.248;2023-03-14T00:35:05;2.77;;;2.40;;
13866;SDS011;7003;46.982;15.248;2023-03-14T00:37:33;3.07;;;2.37;;
13866;SDS011;7003;46.982;15.248;2023-03-14T00:40:02;2.93;;;2.53;;
13866;SDS011;7003;46.982;15.248;2023-03-14T00:42:34;2.70;;;2.43;;
13866;SDS011;7003;46.982;15.248;2023-03-14T00:45:04;2.92;;;1.73;;
13866;SDS011;7003;46.982;15.248;2023-03-14T00:47:34;2.70;;;2.50;;
13866;SDS011;7003;46.982;15.248;2023-03-14T00:50:04;2.30;;;2.10;;
13866;SDS011;7003;46.982;15.248;2023-03-14T00:52:32;1.43;;;1.33;;
13866;SDS011;7003;46.982;15.248;2023-03-14T00:54:59;3.63;;;2.57;;
13866;SDS011;7003;46.982;15.248;2023-03-14T00:57:29;2.38;;;1.85;;
13866;SDS011;7003;46.982;15.248;2023-03-14T00:59:56;2.33;;;1.92;;
13866;SDS011;7003;46.982;15.248;2023-03-14T01:02:25;3.00;;;1.87;;
13866;SDS011;7003;46.982;15.248;2023-03-14T01:04:53;2.30;;;2.10;;
13866;SDS011;7003;46.982;15.248;2023-03-14T01:07:20;1.77;;;1.67;;
13866;SDS011;7003;46.982;15.248;2023-03-14T01:09:51;2.30;;;2.00;;
13866;SDS011;7003;46.982;15.248;2023-03-14T01:12:18;2.13;;;1.98;;
13866;SDS011;7003;46.982;15.248;2023-03-14T01:14:46;8.87;;;2.93;;
13866;SDS011;7003;46.982;15.248;2023-03-14T01:17:14;1.83;;;1.73;;
13866;SDS011;7003;46.982;15.248;2023-03-14T01:19:43;2.53;;;1.80;;
13866;SDS011;7003;46.982;15.248;2023-03-14T01:22:10;2.13;;;1.85;;
13866;SDS011;7003;46.982;15.248;2023-03-14T01:24:38;4.80;;;2.40;;
13866;SDS011;7003;46.982;15.248;2023-03-14T01:27:08;1.90;;;1.80;;
13866;SDS011;7003;46.982;15.248;2023-03-14T01:29:35;2.47;;;2.03;;
13866;SDS011;7003;46.982;15.248;2023-03-14T01:32:03;2.00;;;1.80;;
13866;SDS011;7003;46.982;15.248;2023-03-14T01:34:31;3.88;;;3.53;;
13866;SDS011;7003;46.982;15.248;2023-03-14T01:37:00;3.83;;;2.50;;
13866;SDS011;7003;46.982;15.248;2023-03-14T01:39:27;2.03;;;1.93;;
13866;SDS011;7003;46.982;15.248;2023-03-14T01:41:55;2.10;;;1.80;;
13866;SDS011;7003;46.982;15.248;2023-03-14T01:44:22;1.70;;;1.60;;
13866;SDS011;7003;46.982;15.248;2023-03-14T01:46:50;3.70;;;2.60;;
13866;SDS011;7003;46.982;15.248;2023-03-14T01:49:20;3.30;;;2.40;;
13866;SDS011;7003;46.982;15.248;2023-03-14T01:51:53;3.35;;;1.70;;
13866;SDS011;7003;46.982;15.248;2023-03-14T01:54:27;2.53;;;1.97;;
13866;SDS011;7003;46.982;15.248;2023-03-14T01:57:00;1.90;;;1.80;;
13866;SDS011;7003;46.982;15.248;2023-03-14T01:59:31;2.33;;;2.13;;
13866;SDS011;7003;46.982;15.248;2023-03-14T02:02:01;2.20;;;1.70;;
13866;SDS011;7003;46.982;15.248;2023-03-14T02:04:32;4.20;;;2.93;;
13866;SDS011;7003;46.982;15.248;2023-03-14T02:07:03;2.30;;;2.07;;
13866;SDS011;7003;46.982;15.248;2023-03-14T02:09:36;2.70;;;1.73;;
13866;SDS011;7003;46.982;15.248;2023-03-14T02:12:08;2.53;;;1.77;;
13866;SDS011;7003;46.982;15.248;2023-03-14T02:14:36;2.10;;;1.90;;
13866;SDS011;7003;46.982;15.248;2023-03-14T02:17:04;1.93;;;1.80;;
13866;SDS011;7003;46.982;15.248;2023-03-14T02:19:39;1.90;;;1.60;;
13866;SDS011;7003;46.982;15.248;2023-03-14T02:22:17;4.33;;;2.53;;
13866;SDS011;7003;46.982;15.248;2023-03-14T02:24:48;2.47;;;1.70;;
13866;SDS011;7003;46.982;15.248;2023-03-14T02:27:26;1.50;;;1.40;;
13866;SDS011;7003;46.982;15.248;2023-03-14T02:29:57;4.10;;;2.47;;
13866;SDS011;7003;46.982;15.248;2023-03-14T02:32:29;2.23;;;1.83;;
13866;SDS011;7003;46.982;15.248;2023-03-14T02:34:59;3.70;;;2.27;;
13866;SDS011;7003;46.982;15.248;2023-03-14T02:37:31;2.47;;;1.73;;
13866;SDS011;7003;46.982;15.248;2023-03-14T02:40:02;5.87;;;2.27;;
13866;SDS011;7003;46.982;15.248;2023-03-14T02:42:32;2.43;;;2.33;;
13866;SDS011;7003;46.982;15.248;2023-03-14T02:45:01;2.50;;;2.13;;
13866;SDS011;7003;46.982;15.248;2023-03-14T02:48:06;3.50;;;1.83;;
13866;SDS011;7003;46.982;15.248;2023-03-14T02:50:35;2.30;;;1.80;;
13866;SDS011;7003;46.982;15.248;2023-03-14T02:53:03;1.97;;;1.70;;
13866;SDS011;7003;46.982;15.248;2023-03-14T02:55:31;3.03;;;2.43;;
13866;SDS011;7003;46.982;15.248;2023-03-14T02:58:06;2.77;;;1.50;;
13866;SDS011;7003;46.982;15.248;2023-03-14T03:00:34;2.03;;;1.67;;
13866;SDS011;7003;46.982;15.248;2023-03-14T03:03:03;2.47;;;1.90;;
13866;SDS011;7003;46.982;15.248;2023-03-14T03:05:32;1.70;;;1.60;;
13866;SDS011;7003;46.982;15.248;2023-03-14T03:08:02;1.70;;;1.60;;
13866;SDS011;7003;46.982;15.248;2023-03-14T03:10:31;3.83;;;2.60;;
13866;SDS011;7003;46.982;15.248;2023-03-14T03:13:06;1.47;;;1.30;;
13866;SDS011;7003;46.982;15.248;2023-03-14T03:15:36;2.20;;;1.83;;
13866;SDS011;7003;46.982;15.248;2023-03-14T03:18:03;1.27;;;1.17;;
13866;SDS011;7003;46.982;15.248;2023-03-14T03:20:30;3.23;;;2.63;;
13866;SDS011;7003;46.982;15.248;2023-03-14T03:22:59;3.63;;;2.03;;
13866;SDS011;7003;46.982;15.248;2023-03-14T03:25:26;1.80;;;1.70;;
13866;SDS011;7003;46.982;15.248;2023-03-14T03:27:54;3.10;;;1.83;;
13866;SDS011;7003;46.982;15.248;2023-03-14T03:30:24;1.60;;;1.13;;
13866;SDS011;7003;46.982;15.248;2023-03-14T03:32:54;2.00;;;1.80;;
13866;SDS011;7003;46.982;15.248;2023-03-14T03:35:21;3.73;;;1.37;;
13866;SDS011;7003;46.982;15.248;2023-03-14T03:37:49;5.03;;;2.17;;
13866;SDS011;7003;46.982;15.248;2023-03-14T03:40:16;1.63;;;1.30;;
13866;SDS011;7003;46.982;15.248;2023-03-14T03:42:43;1.37;;;1.27;;
13866;SDS011;7003;46.982;15.248;2023-03-14T03:45:12;1.60;;;1.33;;
13866;SDS011;7003;46.982;15.248;2023-03-14T03:47:41;6.50;;;2.23;;
13866;SDS011;7003;46.982;15.248;2023-03-14T03:50:08;1.03;;;0.93;;
13866;SDS011;7003;46.982;15.248;2023-03-14T03:52:36;0.70;;;0.70;;
13866;SDS011;7003;46.982;15.248;2023-03-14T03:55:03;2.00;;;1.90;;
13866;SDS011;7003;46.982;15.248;2023-03-14T03:57:31;1.37;;;1.17;;
13866;SDS011;7003;46.982;15.248;2023-03-14T04:00:01;1.67;;;1.57;;
13866;SDS011;7003;46.982;15.248;2023-03-14T04:02:29;1.77;;;1.53;;
13866;SDS011;7003;46.982;15.248;2023-03-14T04:04:58;3.80;;;1.73;;
13866;SDS011;7003;46.982;15.248;2023-03-14T04:07:25;0.90;;;0.90;;
13866;SDS011;7003;46.982;15.248;2023-03-14T04:09:54;2.40;;;1.80;;
13866;SDS011;7003;46.982;15.248;2023-03-14T04:12:21;1.40;;;1.30;;
13866;SDS011;7003;46.982;15.248;2023-03-14T04:14:49;2.57;;;1.53;;
13866;SDS011;7003;46.982;15.248;2023-03-14T04:17:16;3.53;;;2.23;;
13866;SDS011;7003;46.982;15.248;2023-03-14T04:19:43;1.63;;;1.53;;
13866;SDS011;7003;46.982;15.248;2023-03-14T04:22:11;1.77;;;1.67;;
13866;SDS011;7003;46.982;15.248;2023-03-14T04:24:38;1.00;;;1.00;;
13866;SDS011;7003;46.982;15.248;2023-03-14T04:27:05;1.40;;;1.30;;
13866;SDS011;7003;46.982;15.248;2023-03-14T04:29:32;2.30;;;1.13;;
13866;SDS011;7003;46.982;15.248;2023-03-14T04:32:02;1.93;;;1.67;;
13866;SDS011;7003;46.982;15.248;2023-03-14T04:34:31;4.50;;;1.83;;
13866;SDS011;7003;46.982;15.248;2023-03-14T04:37:00;1.70;;;1.30;;
13866;SDS011;7003;46.982;15.248;2023-03-14T04:39:29;1.87;;;1.70;;
13866;SDS011;7003;46.982;15.248;2023-03-14T04:41:58;3.10;;;1.80;;
13866;SDS011;7003;46.982;15.248;2023-03-14T04:44:28;2.03;;;1.17;;
13866;SDS011;7003;46.982;15.248;2023-03-14T04:46:55;7.30;;;1.37;;
13866;SDS011;7003;46.982;15.248;2023-03-14T04:49:22;2.97;;;1.53;;
13866;SDS011;7003;46.982;15.248;2023-03-14T04:51:50;3.83;;;1.20;;
13866;SDS011;7003;46.982;15.248;2023-03-14T04:54:17;1.27;;;1.17;;
13866;SDS011;7003;46.982;15.248;2023-03-14T04:56:46;2.27;;;1.97;;
13866;SDS011;7003;46.982;15.248;2023-03-14T04:59:12;3.07;;;2.13;;
13866;SDS011;7003;46.982;15.248;2023-03-14T05:01:40;1.43;;;1.30;;
13866;SDS011;7003;46.982;15.248;2023-03-14T05:04:09;1.33;;;1.23;;
13866;SDS011;7003;46.982;15.248;2023-03-14T05:06:40;1.63;;;1.53;;
13866;SDS011;7003;46.982;15.248;2023-03-14T05:09:07;2.27;;;1.40;;
13866;SDS011;7003;46.982;15.248;2023-03-14T05:11:37;1.53;;;1.03;;
13866;SDS011;7003;46.982;15.248;2023-03-14T05:14:06;3.87;;;1.43;;
13866;SDS011;7003;46.982;15.248;2023-03-14T05:16:35;1.30;;;1.20;;
13866;SDS011;7003;46.982;15.248;2023-03-14T05:19:03;2.43;;;1.40;;
13866;SDS011;7003;46.982;15.248;2023-03-14T05:21:31;1.60;;;1.50;;
13866;SDS011;7003;46.982;15.248;2023-03-14T05:23:59;1.67;;;1.27;;
13866;SDS011;7003;46.982;15.248;2023-03-14T05:26:27;2.47;;;1.30;;
13866;SDS011;7003;46.982;15.248;2023-03-14T05:28:58;1.20;;;1.10;;
13866;SDS011;7003;46.982;15.248;2023-03-14T05:31:28;1.77;;;1.60;;
13866;SDS011;7003;46.982;15.248;2023-03-14T05:33:57;1.97;;;1.40;;
13866;SDS011;7003;46.982;15.248;2023-03-14T05:36:27;1.40;;;1.17;;
13866;SDS011;7003;46.982;15.248;2023-03-14T05:38:56;3.80;;;1.17;;
13866;SDS011;7003;46.982;15.248;2023-03-14T05:41:24;1.90;;;1.57;;
13866;SDS011;7003;46.982;15.248;2023-03-14T05:43:56;1.60;;;1.10;;
13866;SDS011;7003;46.982;15.248;2023-03-14T05:46:24;4.83;;;1.37;;
13866;SDS011;7003;46.982;15.248;2023-03-14T05:48:57;3.67;;;1.70;;
13866;SDS011;7003;46.982;15.248;2023-03-14T05:51:29;1.00;;;0.93;;
13866;SDS011;7003;46.982;15.248;2023-03-14T05:54:00;1.75;;;1.63;;
13866;SDS011;7003;46.982;15.248;2023-03-14T05:56:28;1.73;;;1.43;;
13866;SDS011;7003;46.982;15.248;2023-03-14T05:58:57;2.95;;;1.83;;
13866;SDS011;7003;46.982;15.248;2023-03-14T06:01:29;2.95;;;2.65;;
13866;SDS011;7003;46.982;15.248;2023-03-14T06:04:06;1.73;;;1.48;;
13866;SDS011;7003;46.982;15.248;2023-03-14T06:06:35;2.22;;;1.77;;
13866;SDS011;7003;46.982;15.248;2023-03-14T06:09:07;1.67;;;1.58;;
13866;SDS011;7003;46.982;15.248;2023-03-14T06:11:36;3.53;;;1.92;;
13866;SDS011;7003;46.982;15.248;2023-03-14T06:14:05;2.40;;;1.58;;
13866;SDS011;7003;46.982;15.248;2023-03-14T06:16:34;8.80;;;1.90;;
13866;SDS011;7003;46.982;15.248;2023-03-14T06:19:02;1.45;;;1.30;;
13866;SDS011;7003;46.982;15.248;2023-03-14T06:21:32;2.53;;;1.70;;
13866;SDS011;7003;46.982;15.248;2023-03-14T06:24:00;1.55;;;1.45;;
13866;SDS011;7003;46.982;15.248;2023-03-14T06:26:29;1.75;;;1.50;;
13866;SDS011;7003;46.982;15.248;2023-03-14T06:28:58;4.75;;;1.73;;
13866;SDS011;7003;46.982;15.248;2023-03-14T06:31:29;6.22;;;1.67;;
13866;SDS011;7003;46.982;15.248;2023-03-14T06:34:00;1.13;;;1.00;;
13866;SDS011;7003;46.982;15.248;2023-03-14T06:36:29;3.88;;;1.23;;
13866;SDS011;7003;46.982;15.248;2023-03-14T06:39:00;9.52;;;1.83;;
13866;SDS011;7003;46.982;15.248;2023-03-14T06:41:29;3.10;;;1.33;;
13866;SDS011;7003;46.982;15.248;2023-03-14T06:43:58;1.83;;;1.20;;
13866;SDS011;7003;46.982;15.248;2023-03-14T06:46:27;2.78;;;1.88;;
13866;SDS011;7003;46.982;15.248;2023-03-14T06:48:55;2.78;;;2.22;;
13866;SDS011;7003;46.982;15.248;2023-03-14T06:51:25;2.08;;;1.15;;
13866;SDS011;7003;46.982;15.248;2023-03-14T06:53:56;1.60;;;1.50;;
13866;SDS011;7003;46.982;15.248;2023-03-14T06:56:25;8.55;;;1.63;;
13866;SDS011;7003;46.982;15.248;2023-03-14T06:58:57;2.53;;;2.33;;
13866;SDS011;7003;46.982;15.248;2023-03-14T07:01:27;1.75;;;1.65;;
13866;SDS011;7003;46.982;15.248;2023-03-14T07:04:06;2.05;;;1.58;;
13866;SDS011;7003;46.982;15.248;2023-03-14T07:06:38;2.05;;;1.88;;
13866;SDS011;7003;46.982;15.248;2023-03-14T07:09:15;2.42;;;1.60;;
13866;SDS011;7003;46.982;15.248;2023-03-14T07:11:48;6.25;;;2.03;;
13866;SDS011;7003;46.982;15.248;2023-03-14T07:14:18;1.85;;;1.55;;
13866;SDS011;7003;46.982;15.248;2023-03-14T07:16:47;1.92;;;1.30;;
13866;SDS011;7003;46.982;15.248;2023-03-14T07:19:17;1.33;;;1.20;;
13866;SDS011;7003;46.982;15.248;2023-03-14T07:21:48;1.45;;;1.33;;
13866;SDS011;7003;46.982;15.248;2023-03-14T07:24:19;4.13;;;2.25;;
13866;SDS011;7003;46.982;15.248;2023-03-14T07:26:47;2.35;;;1.70;;
13866;SDS011;7003;46.982;15.248;2023-03-14T07:29:19;1.75;;;1.65;;
13866;SDS011;7003;46.982;15.248;2023-03-14T07:31:50;1.17;;;1.08;;
13866;SDS011;7003;46.982;15.248;2023-03-14T07:34:20;1.67;;;1.58;;
13866;SDS011;7003;46.982;15.248;2023-03-14T07:36:51;1.70;;;1.27;;
13866;SDS011;7003;46.982;15.248;2023-03-14T07:39:22;2.50;;;1.35;;
13866;SDS011;7003;46.982;15.248;2023-03-14T07:41:53;2.58;;;1.90;;
13866;SDS011;7003;46.982;15.248;2023-03-14T07:44:22;2.95;;;1.92;;
13866;SDS011;7003;46.982;15.248;2023-03-14T07:46:54;2.85;;;1.58;;
13866;SDS011;7003;46.982;15.248;2023-03-14T07:49:23;1.98;;;1.45;;
13866;SDS011;7003;46.982;15.248;2023-03-14T07:51:53;2.22;;;2.03;;
13866;SDS011;7003;46.982;15.248;2023-03-14T07:54:24;1.98;;;1.77;;
13866;SDS011;7003;46.982;15.248;2023-03-14T07:56:55;2.55;;;1.98;;
13866;SDS011;7003;46.982;15.248;2023-03-14T07:59:27;1.80;;;1.67;;
13866;SDS011;7003;46.982;15.248;2023-03-14T08:13:38;3.75;;;2.53;;
13866;SDS011;7003;46.982;15.248;2023-03-14T08:16:09;1.85;;;1.40;;
13866;SDS011;7003;46.982;15.248;2023-03-14T08:18:37;1.95;;;1.83;;
13866;SDS011;7003;46.982;15.248;2023-03-14T08:21:06;2.42;;;1.92;;
13866;SDS011;7003;46.982;15.248;2023-03-14T08:23:35;5.63;;;1.65;;
13866;SDS011;7003;46.982;15.248;2023-03-14T08:26:03;3.20;;;2.53;;
13866;SDS011;7003;46.982;15.248;2023-03-14T08:28:32;2.40;;;2.20;;
13866;SDS011;7003;46.982;15.248;2023-03-14T08:31:04;3.97;;;2.35;;
13866;SDS011;7003;46.982;15.248;2023-03-14T08:33:31;2.78;;;1.88;;
13866;SDS011;7003;46.982;15.248;2023-03-14T08:36:02;2.58;;;1.70;;
13866;SDS011;7003;46.982;15.248;2023-03-14T08:38:33;2.35;;;1.83;;
13866;SDS011;7003;46.982;15.248;2023-03-14T08:41:02;1.67;;;1.58;;
13866;SDS011;7003;46.982;15.248;2023-03-14T08:43:30;2.03;;;1.83;;
13866;SDS011;7003;46.982;15.248;2023-03-14T08:45:58;3.10;;;2.67;;
13866;SDS011;7003;46.982;15.248;2023-03-14T08:48:29;2.90;;;1.95;;
13866;SDS011;7003;46.982;15.248;2023-03-14T08:51:03;2.00;;;1.77;;
13866;SDS011;7003;46.982;15.248;2023-03-14T08:53:35;3.25;;;1.90;;
13866;SDS011;7003;46.982;15.248;2023-03-14T08:56:05;2.83;;;2.20;;
13866;SDS011;7003;46.982;15.248;2023-03-14T08:58:35;5.45;;;2.38;;
13866;SDS011;7003;46.982;15.248;2023-03-14T09:01:03;2.05;;;1.70;;
13866;SDS011;7003;46.982;15.248;2023-03-14T09:03:33;1.40;;;1.30;;
13866;SDS011;7003;46.982;15.248;2023-03-14T09:06:01;6.97;;;2.13;;
13866;SDS011;7003;46.982;15.248;2023-03-14T09:08:30;2.47;;;1.75;;
13866;SDS011;7003;46.982;15.248;2023-03-14T09:10:59;2.90;;;1.63;;
13866;SDS011;7003;46.982;15.248;2023-03-14T09:13:30;5.00;;;2.20;;
13866;SDS011;7003;46.982;15.248;2023-03-14T09:16:00;2.80;;;1.80;;
13866;SDS011;7003;46.982;15.248;2023-03-14T09:18:28;3.78;;;1.85;;
13866;SDS011;7003;46.982;15.248;2023-03-14T09:20:57;1.67;;;1.40;;
13866;SDS011;7003;46.982;15.248;2023-03-14T09:23:25;3.15;;;2.08;;
13866;SDS011;7003;46.982;15.248;2023-03-14T09:25:56;1.73;;;1.42;;
13866;SDS011;7003;46.982;15.248;2023-03-14T09:28:24;6.03;;;2.10;;
13866;SDS011;7003;46.982;15.248;2023-03-14T09:30:54;1.52;;;1.35;;
13866;SDS011;7003;46.982;15.248;2023-03-14T09:33:22;2.05;;;1.63;;
13866;SDS011;7003;46.982;15.248;2023-03-14T09:35:52;3.75;;;1.55;;
13866;SDS011;7003;46.982;15.248;2023-03-14T09:38:24;2.88;;;1.55;;
13866;SDS011;7003;46.982;15.248;2023-03-14T09:40:54;3.53;;;1.70;;
13866;SDS011;7003;46.982;15.248;2023-03-14T09:43:25;1.67;;;1.58;;
13866;SDS011;7003;46.982;15.248;2023-03-14T09:45:55;2.72;;;2.08;;
13866;SDS011;7003;46.982;15.248;2023-03-14T09:48:29;2.88;;;1.58;;
13866;SDS011;7003;46.982;15.248;2023-03-14T09:51:01;1.60;;;1.48;;
13866;SDS011;7003;46.982;15.248;2023-03-14T09:53:35;3.10;;;1.42;;
13866;SDS011;7003;46.982;15.248;2023-03-14T09:56:09;1.38;;;1.27;;
13866;SDS011;7003;46.982;15.248;2023-03-14T09:58:40;5.28;;;1.63;;
13866;SDS011;7003;46.982;15.248;2023-03-14T10:01:13;2.55;;;1.30;;
13866;SDS011;7003;46.982;15.248;2023-03-14T10:03:43;1.60;;;1.45;;
13866;SDS011;7003;46.982;15.248;2023-03-14T10:06:14;2.78;;;1.35;;
13866;SDS011;7003;46.982;15.248;2023-03-14T10:08:44;1.80;;;1.27;;
13866;SDS011;7003;46.982;15.248;2023-03-14T10:11:14;2.90;;;1.75;;
13866;SDS011;7003;46.982;15.248;2023-03-14T10:13:49;0.65;;;0.65;;
13866;SDS011;7003;46.982;15.248;2023-03-14T10:16:33;1.13;;;0.43;;
13866;SDS011;7003;46.982;15.248;2023-03-14T10:19:05;0.30;;;0.30;;
13866;SDS011;7003;46.982;15.248;2023-03-14T10:21:37;2.03;;;1.45;;
13866;SDS011;7003;46.982;15.248;2023-03-14T10:24:16;1.15;;;1.00;;
13866;SDS011;7003;46.982;15.248;2023-03-14T10:26:52;0.80;;;0.70;;
13866;SDS011;7003;46.982;15.248;2023-03-14T10:29:20;0.47;;;0.47;;
13866;SDS011;7003;46.982;15.248;2023-03-14T10:31:50;0.22;;;0.22;;
13866;SDS011;7003;46.982;15.248;2023-03-14T10:34:21;0.32;;;0.30;;
13866;SDS011;7003;46.982;15.248;2023-03-14T10:36:55;0.63;;;0.30;;
13866;SDS011;7003;46.982;15.248;2023-03-14T10:39:26;0.20;;;0.20;;
13866;SDS011;7003;46.982;15.248;2023-03-14T10:42:02;0.68;;;0.05;;
13866;SDS011;7003;46.982;15.248;2023-03-14T10:44:31;0.17;;;0.17;;
13866;SDS011;7003;46.982;15.248;2023-03-14T10:47:02;0.10;;;0.10;;
13866;SDS011;7003;46.982;15.248;2023-03-14T10:49:32;0.77;;;0.10;;
13866;SDS011;7003;46.982;15.248;2023-03-14T10:52:02;0.10;;;0.10;;
13866;SDS011;7003;46.982;15.248;2023-03-14T10:54:47;1.65;;;0.30;;
13866;SDS011;7003;46.982;15.248;2023-03-14T10:57:19;0.10;;;0.10;;
13866;SDS011;7003;46.982;15.248;2023-03-14T10:59:47;0.10;;;0.10;;
13866;SDS011;7003;46.982;15.248;2023-03-14T11:02:21;0.10;;;0.10;;
13866;SDS011;7003;46.982;15.248;2023-03-14T11:05:03;0.75;;;0.50;;
13866;SDS011;7003;46.982;15.248;2023-03-14T11:07:41;0.35;;;0.35;;
13866;SDS011;7003;46.982;15.248;2023-03-14T11:10:20;0.40;;;0.40;;
13866;SDS011;7003;46.982;15.248;2023-03-14T11:12:59;0.10;;;0.10;;
13866;SDS011;7003;46.982;15.248;2023-03-14T11:15:36;0.20;;;0.20;;
13866;SDS011;7003;46.982;15.248;2023-03-14T11:21:32;0.32;;;0.22;;
13866;SDS011;7003;46.982;15.248;2023-03-14T11:24:25;0.10;;;0.10;;
13866;SDS011;7003;46.982;15.248;2023-03-14T11:27:09;0.10;;;0.10;;
13866;SDS011;7003;46.982;15.248;2023-03-14T11:29:45;0.28;;;0.28;;
13866;SDS011;7003;46.982;15.248;2023-03-14T11:32:36;0.10;;;0.10;;
13866;SDS011;7003;46.982;15.248;2023-03-14T11:35:15;0.10;;;0.10;;
13866;SDS011;7003;46.982;15.248;2023-03-14T11:37:52;0.10;;;0.10;;
13866;SDS011;7003;46.982;15.248;2023-03-14T11:40:27;0.38;;;0.20;;
13866;SDS011;7003;46.982;15.248;2023-03-14T11:43:01;0.08;;;0.08;;
13866;SDS011;7003;46.982;15.248;2023-03-14T11:45:39;0.15;;;0.15;;
13866;SDS011;7003;46.982;15.248;2023-03-14T11:48:17;0.20;;;0.20;;
13866;SDS011;7003;46.982;15.248;2023-03-14T11:50:52;0.20;;;0.20;;
13866;SDS011;7003;46.982;15.248;2023-03-14T11:53:35;0.20;;;0.20;;
13866;SDS011;7003;46.982;15.248;2023-03-14T11:56:13;0.10;;;0.10;;
13866;SDS011;7003;46.982;15.248;2023-03-14T11:58:54;0.20;;;0.20;;
13866;SDS011;7003;46.982;15.248;2023-03-14T12:01:27;0.10;;;0.10;;
13866;SDS011;7003;46.982;15.248;2023-03-14T12:04:02;0.30;;;0.30;;
13866;SDS011;7003;46.982;15.248;2023-03-14T12:06:38;0.30;;;0.30;;
13866;SDS011;7003;46.982;15.248;2023-03-14T12:09:13;0.47;;;0.20;;
13866;SDS011;7003;46.982;15.248;2023-03-14T12:11:44;3.55;;;0.32;;
13866;SDS011;7003;46.982;15.248;2023-03-14T12:14:22;0.40;;;0.40;;
13866;SDS011;7003;46.982;15.248;2023-03-14T12:16:56;2.92;;;0.30;;
13866;SDS011;7003;46.982;15.248;2023-03-14T12:19:30;0.20;;;0.20;;
13866;SDS011;7003;46.982;15.248;2023-03-14T12:22:01;0.38;;;0.38;;
13866;SDS011;7003;46.982;15.248;2023-03-14T12:24:44;0.20;;;0.20;;
13866;SDS011;7003;46.982;15.248;2023-03-14T12:27:40;0.75;;;0.30;;
13866;SDS011;7003;46.982;15.248;2023-03-14T12:30:31;0.55;;;0.50;;
13866;SDS011;7003;46.982;15.248;2023-03-14T12:33:11;0.30;;;0.30;;
13866;SDS011;7003;46.982;15.248;2023-03-14T12:35:48;0.30;;;0.30;;
13866;SDS011;7003;46.982;15.248;2023-03-14T12:38:18;0.40;;;0.40;;
13866;SDS011;7003;46.982;15.248;2023-03-14T12:40:58;0.30;;;0.30;;
13866;SDS011;7003;46.982;15.248;2023-03-14T12:43:33;2.35;;;0.45;;
13866;SDS011;7003;46.982;15.248;2023-03-14T12:46:14;0.40;;;0.30;;
13866;SDS011;7003;46.982;15.248;2023-03-14T12:48:47;0.50;;;0.40;;
13866;SDS011;7003;46.982;15.248;2023-03-14T12:51:18;0.45;;;0.45;;
13866;SDS011;7003;46.982;15.248;2023-03-14T12:57:06;0.32;;;0.28;;
13866;SDS011;7003;46.982;15.248;2023-03-14T12:59:48;0.50;;;0.50;;
13866;SDS011;7003;46.982;15.248;2023-03-14T13:02:24;0.32;;;0.32;;
13866;SDS011;7003;46.982;15.248;2023-03-14T13:05:00;0.15;;;0.15;;
13866;SDS011;7003;46.982;15.248;2023-03-14T13:08:01;2.28;;;0.52;;
13866;SDS011;7003;46.982;15.248;2023-03-14T13:10:39;0.73;;;0.30;;
13866;SDS011;7003;46.982;15.248;2023-03-14T13:13:16;0.22;;;0.22;;
13866;SDS011;7003;46.982;15.248;2023-03-14T13:15:53;1.48;;;0.35;;
13866;SDS011;7003;46.982;15.248;2023-03-14T13:18:29;0.20;;;0.20;;
13866;SDS011;7003;46.982;15.248;2023-03-14T13:21:02;0.28;;;0.17;;
13866;SDS011;7003;46.982;15.248;2023-03-14T13:23:33;0.13;;;0.13;;
13866;SDS011;7003;46.982;15.248;2023-03-14T13:26:03;0.10;;;0.10;;
13866;SDS011;7003;46.982;15.248;2023-03-14T13:28:38;0.45;;;0.38;;
13866;SDS011;7003;46.982;15.248;2023-03-14T13:31:14;0.30;;;0.30;;
13866;SDS011;7003;46.982;15.248;2023-03-14T13:33:57;0.20;;;0.20;;
13866;SDS011;7003;46.982;15.248;2023-03-14T13:36:28;1.45;;;0.22;;
13866;SDS011;7003;46.982;15.248;2023-03-14T13:38:57;0.28;;;0.28;;
13866;SDS011;7003;46.982;15.248;2023-03-14T13:41:27;0.95;;;0.47;;
13866;SDS011;7003;46.982;15.248;2023-03-14T13:44:01;0.38;;;0.38;;
13866;SDS011;7003;46.982;15.248;2023-03-14T13:46:33;0.80;;;0.30;;
13866;SDS011;7003;46.982;15.248;2023-03-14T13:49:04;0.30;;;0.30;;
13866;SDS011;7003;46.982;15.248;2023-03-14T13:51:34;0.30;;;0.20;;
13866;SDS011;7003;46.982;15.248;2023-03-14T13:54:13;0.63;;;0.47;;
13866;SDS011;7003;46.982;15.248;2023-03-14T13:56:42;0.75;;;0.50;;
13866;SDS011;7003;46.982;15.248;2023-03-14T13:59:21;1.15;;;1.08;;
13866;SDS011;7003;46.982;15.248;2023-03-14T14:01:50;3.10;;;0.40;;
13866;SDS011;7003;46.982;15.248;2023-03-14T14:04:23;0.35;;;0.35;;
13866;SDS011;7003;46.982;15.248;2023-03-14T14:06:55;0.20;;;0.20;;
13866;SDS011;7003;46.982;15.248;2023-03-14T14:09:29;0.50;;;0.50;;
13866;SDS011;7003;46.982;15.248;2023-03-14T14:12:03;0.38;;;0.38;;
13866;SDS011;7003;46.982;15.248;2023-03-14T14:14:38;0.17;;;0.17;;
13866;SDS011;7003;46.982;15.248;2023-03-14T14:17:08;0.30;;;0.30;;
13866;SDS011;7003;46.982;15.248;2023-03-14T14:19:42;0.40;;;0.22;;
13866;SDS011;7003;46.982;15.248;2023-03-14T14:22:15;0.47;;;0.30;;
13866;SDS011;7003;46.982;15.248;2023-03-14T14:24:46;0.30;;;0.30;;
13866;SDS011;7003;46.982;15.248;2023-03-14T14:27:17;0.30;;;0.30;;
13866;SDS011;7003;46.982;15.248;2023-03-14T14:29:56;0.55;;;0.45;;
13866;SDS011;7003;46.982;15.248;2023-03-14T14:32:26;0.65;;;0.60;;
13866;SDS011;7003;46.982;15.248;2023-03-14T14:35:03;1.35;;;0.75;;
13866;SDS011;7003;46.982;15.248;2023-03-14T14:37:31;1.77;;;0.55;;
13866;SDS011;7003;46.982;15.248;2023-03-14T14:40:05;1.90;;;1.42;;
13866;SDS011;7003;46.982;15.248;2023-03-14T14:42:38;0.52;;;0.45;;
13866;SDS011;7003;46.982;15.248;2023-03-14T14:45:11;0.20;;;0.20;;
13866;SDS011;7003;46.982;15.248;2023-03-14T14:47:49;0.52;;;0.25;;
13866;SDS011;7003;46.982;15.248;2023-03-14T14:50:28;0.40;;;0.40;;
13866;SDS011;7003;46.982;15.248;2023-03-14T14:53:01;0.20;;;0.20;;
13866;SDS011;7003;46.982;15.248;2023-03-14T14:55:31;1.00;;;0.68;;
13866;SDS011;7003;46.982;15.248;2023-03-14T14:58:11;0.40;;;0.40;;
13866;SDS011;7003;46.982;15.248;2023-03-14T15:00:50;0.40;;;0.30;;
13866;SDS011;7003;46.982;15.248;2023-03-14T15:03:21;0.40;;;0.32;;
13866;SDS011;7003;46.982;15.248;2023-03-14T15:05:54;0.32;;;0.32;;
13866;SDS011;7003;46.982;15.248;2023-03-14T15:08:24;0.95;;;0.20;;
13866;SDS011;7003;46.982;15.248;2023-03-14T15:10:53;0.20;;;0.20;;
13866;SDS011;7003;46.982;15.248;2023-03-14T15:13:21;0.73;;;0.63;;
13866;SDS011;7003;46.982;15.248;2023-03-14T15:15:50;4.75;;;0.57;;
13866;SDS011;7003;46.982;15.248;2023-03-14T15:18:22;0.20;;;0.20;;
13866;SDS011;7003;46.982;15.248;2023-03-14T15:20:51;0.40;;;0.40;;
13866;SDS011;7003;46.982;15.248;2023-03-14T15:23:21;0.70;;;0.65;;
13866;SDS011;7003;46.982;15.248;2023-03-14T15:25:49;2.08;;;0.93;;
13866;SDS011;7003;46.982;15.248;2023-03-14T15:28:18;0.73;;;0.60;;
13866;SDS011;7003;46.982;15.248;2023-03-14T15:30:50;2.00;;;1.35;;